sensor_id;sensor_type;location;lat;lon;timestamp;temperature;humidity
21495;DHT22;10909;53.590;10.054;2022-08-07T00:00:22;19.20;51.40
21495;DHT22;10909;53.590;10.054;2022-08-07T00:02:48;19.20;51.30
21495;DHT22;10909;53.590;10.054;2022-08-07T00:05:13;19.10;51.40
21495;DHT22;10909;53.590;10.054;2022-08-07T00:07:39;19.10;51.50
21495;DHT22;10909;53.590;10.054;2022-08-07T00:10:05;19.10;51.60
21495;DHT22;10909;53.590;10.054;2022-08-07T00:12:31;19.10;51.60
21495;DHT22;10909;53.590;10.054;2022-08-07T00:14:57;19.10;51.70
21495;DHT22;10909;53.590;10.054;2022-08-07T00:17:23;19.00;51.70
21495;DHT22;10909;53.590;10.054;2022-08-07T00:19:48;19.00;51.70
21495;DHT22;10909;53.590;10.054;2022-08-07T00:22:15;19.00;51.80
21495;DHT22;10909;53.590;10.054;2022-08-07T00:24:41;18.90;51.80
21495;DHT22;10909;53.590;10.054;2022-08-07T00:27:06;18.90;52.00
21495;DHT22;10909;53.590;10.054;2022-08-07T00:29:32;18.90;51.90
21495;DHT22;10909;53.590;10.054;2022-08-07T00:31:59;18.90;52.10
21495;DHT22;10909;53.590;10.054;2022-08-07T00:34:25;18.80;52.30
21495;DHT22;10909;53.590;10.054;2022-08-07T00:36:51;18.80;52.40
21495;DHT22;10909;53.590;10.054;2022-08-07T00:39:17;18.80;52.50
21495;DHT22;10909;53.590;10.054;2022-08-07T00:41:55;18.70;52.50
21495;DHT22;10909;53.590;10.054;2022-08-07T00:44:22;18.70;52.90
21495;DHT22;10909;53.590;10.054;2022-08-07T00:46:49;18.70;52.70
21495;DHT22;10909;53.590;10.054;2022-08-07T00:49:15;18.60;52.80
21495;DHT22;10909;53.590;10.054;2022-08-07T00:51:41;18.60;52.80
21495;DHT22;10909;53.590;10.054;2022-08-07T00:54:07;18.60;53.00
21495;DHT22;10909;53.590;10.054;2022-08-07T00:56:33;18.50;53.00
21495;DHT22;10909;53.590;10.054;2022-08-07T00:58:59;18.50;53.20
21495;DHT22;10909;53.590;10.054;2022-08-07T01:01:26;18.50;53.30
21495;DHT22;10909;53.590;10.054;2022-08-07T01:03:53;18.50;53.30
21495;DHT22;10909;53.590;10.054;2022-08-07T01:06:19;18.50;53.30
21495;DHT22;10909;53.590;10.054;2022-08-07T01:08:45;18.40;53.40
21495;DHT22;10909;53.590;10.054;2022-08-07T01:11:15;18.40;53.50
21495;DHT22;10909;53.590;10.054;2022-08-07T01:13:41;18.40;53.70
21495;DHT22;10909;53.590;10.054;2022-08-07T01:16:08;18.30;53.60
21495;DHT22;10909;53.590;10.054;2022-08-07T01:18:35;18.30;53.70
21495;DHT22;10909;53.590;10.054;2022-08-07T01:21:11;18.30;53.80
21495;DHT22;10909;53.590;10.054;2022-08-07T01:23:39;18.30;53.80
21495;DHT22;10909;53.590;10.054;2022-08-07T01:26:09;18.30;53.80
21495;DHT22;10909;53.590;10.054;2022-08-07T01:28:36;18.30;54.20
21495;DHT22;10909;53.590;10.054;2022-08-07T01:31:03;18.20;54.00
21495;DHT22;10909;53.590;10.054;2022-08-07T01:33:32;18.20;54.10
21495;DHT22;10909;53.590;10.054;2022-08-07T01:35:58;18.20;54.20
21495;DHT22;10909;53.590;10.054;2022-08-07T01:38:25;18.20;54.30
21495;DHT22;10909;53.590;10.054;2022-08-07T01:40:54;18.20;54.30
21495;DHT22;10909;53.590;10.054;2022-08-07T01:43:20;18.10;54.50
21495;DHT22;10909;53.590;10.054;2022-08-07T01:45:46;18.10;54.40
21495;DHT22;10909;53.590;10.054;2022-08-07T01:48:12;18.10;54.50
21495;DHT22;10909;53.590;10.054;2022-08-07T01:50:38;18.00;54.50
21495;DHT22;10909;53.590;10.054;2022-08-07T01:53:05;18.00;54.70
21495;DHT22;10909;53.590;10.054;2022-08-07T01:55:49;18.00;54.60
21495;DHT22;10909;53.590;10.054;2022-08-07T01:58:18;18.00;54.80
21495;DHT22;10909;53.590;10.054;2022-08-07T02:00:50;17.90;54.80
21495;DHT22;10909;53.590;10.054;2022-08-07T02:03:19;17.90;54.90
21495;DHT22;10909;53.590;10.054;2022-08-07T02:05:54;17.80;54.80
21495;DHT22;10909;53.590;10.054;2022-08-07T02:08:23;17.80;55.10
21495;DHT22;10909;53.590;10.054;2022-08-07T02:10:50;17.70;54.90
21495;DHT22;10909;53.590;10.054;2022-08-07T02:13:21;17.70;55.00
21495;DHT22;10909;53.590;10.054;2022-08-07T02:15:48;17.60;55.10
21495;DHT22;10909;53.590;10.054;2022-08-07T02:18:14;17.60;55.20
21495;DHT22;10909;53.590;10.054;2022-08-07T02:20:41;17.60;55.40
21495;DHT22;10909;53.590;10.054;2022-08-07T02:23:08;17.50;55.40
21495;DHT22;10909;53.590;10.054;2022-08-07T02:25:37;17.50;55.60
21495;DHT22;10909;53.590;10.054;2022-08-07T02:28:04;17.50;55.60
21495;DHT22;10909;53.590;10.054;2022-08-07T02:30:30;17.50;55.50
21495;DHT22;10909;53.590;10.054;2022-08-07T02:32:58;17.40;56.10
21495;DHT22;10909;53.590;10.054;2022-08-07T02:35:25;17.40;55.60
21495;DHT22;10909;53.590;10.054;2022-08-07T02:37:52;17.40;55.80
21495;DHT22;10909;53.590;10.054;2022-08-07T02:40:19;17.40;55.90
21495;DHT22;10909;53.590;10.054;2022-08-07T02:42:45;17.40;55.90
21495;DHT22;10909;53.590;10.054;2022-08-07T02:45:13;17.30;55.80
21495;DHT22;10909;53.590;10.054;2022-08-07T02:47:40;17.30;55.90
21495;DHT22;10909;53.590;10.054;2022-08-07T02:50:07;17.30;56.00
21495;DHT22;10909;53.590;10.054;2022-08-07T02:52:36;17.30;56.10
21495;DHT22;10909;53.590;10.054;2022-08-07T02:55:11;17.30;56.20
21495;DHT22;10909;53.590;10.054;2022-08-07T02:57:39;17.30;56.30
21495;DHT22;10909;53.590;10.054;2022-08-07T03:00:06;17.20;56.20
21495;DHT22;10909;53.590;10.054;2022-08-07T03:02:34;17.20;56.20
21495;DHT22;10909;53.590;10.054;2022-08-07T03:05:08;17.20;56.40
21495;DHT22;10909;53.590;10.054;2022-08-07T03:07:35;17.20;56.60
21495;DHT22;10909;53.590;10.054;2022-08-07T03:10:02;17.10;56.30
21495;DHT22;10909;53.590;10.054;2022-08-07T03:12:33;17.10;56.50
21495;DHT22;10909;53.590;10.054;2022-08-07T03:14:59;17.10;56.50
21495;DHT22;10909;53.590;10.054;2022-08-07T03:17:31;17.10;56.60
21495;DHT22;10909;53.590;10.054;2022-08-07T03:19:58;17.00;56.60
21495;DHT22;10909;53.590;10.054;2022-08-07T03:22:24;17.00;56.70
21495;DHT22;10909;53.590;10.054;2022-08-07T03:24:50;17.00;56.70
21495;DHT22;10909;53.590;10.054;2022-08-07T03:27:16;17.00;56.80
21495;DHT22;10909;53.590;10.054;2022-08-07T03:29:51;17.00;56.90
21495;DHT22;10909;53.590;10.054;2022-08-07T03:32:21;17.00;57.10
21495;DHT22;10909;53.590;10.054;2022-08-07T03:34:49;16.90;56.90
21495;DHT22;10909;53.590;10.054;2022-08-07T03:37:18;16.90;56.90
21495;DHT22;10909;53.590;10.054;2022-08-07T03:39:44;16.90;57.10
21495;DHT22;10909;53.590;10.054;2022-08-07T03:42:15;16.90;57.00
21495;DHT22;10909;53.590;10.054;2022-08-07T03:44:42;16.80;57.10
21495;DHT22;10909;53.590;10.054;2022-08-07T03:47:09;16.80;57.30
21495;DHT22;10909;53.590;10.054;2022-08-07T03:49:35;16.80;57.20
21495;DHT22;10909;53.590;10.054;2022-08-07T03:52:01;16.70;57.20
21495;DHT22;10909;53.590;10.054;2022-08-07T03:54:28;16.70;57.40
21495;DHT22;10909;53.590;10.054;2022-08-07T03:56:55;16.70;57.50
21495;DHT22;10909;53.590;10.054;2022-08-07T03:59:21;16.70;57.60
21495;DHT22;10909;53.590;10.054;2022-08-07T04:01:48;16.70;57.60
21495;DHT22;10909;53.590;10.054;2022-08-07T04:04:17;16.60;57.70
21495;DHT22;10909;53.590;10.054;2022-08-07T04:06:44;16.60;57.80
21495;DHT22;10909;53.590;10.054;2022-08-07T04:09:11;16.60;57.70
21495;DHT22;10909;53.590;10.054;2022-08-07T04:11:37;16.60;57.80
21495;DHT22;10909;53.590;10.054;2022-08-07T04:14:04;16.60;58.40
21495;DHT22;10909;53.590;10.054;2022-08-07T04:16:30;16.60;58.00
21495;DHT22;10909;53.590;10.054;2022-08-07T04:18:56;16.60;58.10
21495;DHT22;10909;53.590;10.054;2022-08-07T04:21:22;16.60;58.00
21495;DHT22;10909;53.590;10.054;2022-08-07T04:23:48;16.60;58.00
21495;DHT22;10909;53.590;10.054;2022-08-07T04:26:14;16.60;58.10
21495;DHT22;10909;53.590;10.054;2022-08-07T04:28:41;16.50;58.10
21495;DHT22;10909;53.590;10.054;2022-08-07T04:31:07;16.60;58.20
21495;DHT22;10909;53.590;10.054;2022-08-07T04:33:37;16.60;58.30
21495;DHT22;10909;53.590;10.054;2022-08-07T04:36:07;16.60;58.30
21495;DHT22;10909;53.590;10.054;2022-08-07T04:38:34;16.60;58.40
21495;DHT22;10909;53.590;10.054;2022-08-07T04:41:00;16.60;58.40
21495;DHT22;10909;53.590;10.054;2022-08-07T04:43:30;16.60;58.50
21495;DHT22;10909;53.590;10.054;2022-08-07T04:46:10;16.60;58.60
21495;DHT22;10909;53.590;10.054;2022-08-07T04:54:46;16.60;59.20
21495;DHT22;10909;53.590;10.054;2022-08-07T05:00:08;16.70;59.00
21495;DHT22;10909;53.590;10.054;2022-08-07T05:02:49;16.70;58.90
21495;DHT22;10909;53.590;10.054;2022-08-07T05:05:25;16.80;58.90
21495;DHT22;10909;53.590;10.054;2022-08-07T05:10:50;16.90;59.20
21495;DHT22;10909;53.590;10.054;2022-08-07T05:13:48;16.90;59.40
21495;DHT22;10909;53.590;10.054;2022-08-07T05:16:16;17.00;59.70
21495;DHT22;10909;53.590;10.054;2022-08-07T05:19:02;17.00;58.90
21495;DHT22;10909;53.590;10.054;2022-08-07T05:21:30;17.10;59.70
21495;DHT22;10909;53.590;10.054;2022-08-07T05:23:59;17.10;59.10
21495;DHT22;10909;53.590;10.054;2022-08-07T05:26:28;17.20;59.40
21495;DHT22;10909;53.590;10.054;2022-08-07T05:28:59;17.20;59.50
21495;DHT22;10909;53.590;10.054;2022-08-07T05:31:28;17.20;60.00
21495;DHT22;10909;53.590;10.054;2022-08-07T05:33:56;17.30;59.90
21495;DHT22;10909;53.590;10.054;2022-08-07T05:36:22;17.30;60.10
21495;DHT22;10909;53.590;10.054;2022-08-07T05:38:49;17.30;60.10
21495;DHT22;10909;53.590;10.054;2022-08-07T05:41:16;17.40;60.20
21495;DHT22;10909;53.590;10.054;2022-08-07T05:43:47;17.40;60.50
21495;DHT22;10909;53.590;10.054;2022-08-07T05:46:15;17.50;60.70
21495;DHT22;10909;53.590;10.054;2022-08-07T05:48:41;17.50;60.70
21495;DHT22;10909;53.590;10.054;2022-08-07T05:51:08;17.50;60.60
21495;DHT22;10909;53.590;10.054;2022-08-07T05:53:34;17.60;61.40
21495;DHT22;10909;53.590;10.054;2022-08-07T05:56:00;17.70;60.80
21495;DHT22;10909;53.590;10.054;2022-08-07T05:58:27;17.80;60.80
21495;DHT22;10909;53.590;10.054;2022-08-07T06:00:54;17.80;60.80
21495;DHT22;10909;53.590;10.054;2022-08-07T06:03:22;17.90;60.80
21495;DHT22;10909;53.590;10.054;2022-08-07T06:05:48;17.90;60.90
21495;DHT22;10909;53.590;10.054;2022-08-07T06:08:15;18.00;61.00
21495;DHT22;10909;53.590;10.054;2022-08-07T06:10:42;18.00;60.80
21495;DHT22;10909;53.590;10.054;2022-08-07T06:13:08;18.10;60.90
21495;DHT22;10909;53.590;10.054;2022-08-07T06:15:35;18.10;61.10
21495;DHT22;10909;53.590;10.054;2022-08-07T06:18:01;18.20;60.80
21495;DHT22;10909;53.590;10.054;2022-08-07T06:20:29;18.20;60.80
21495;DHT22;10909;53.590;10.054;2022-08-07T06:22:56;18.30;61.10
21495;DHT22;10909;53.590;10.054;2022-08-07T06:25:22;18.40;60.70
21495;DHT22;10909;53.590;10.054;2022-08-07T06:27:48;18.40;60.70
21495;DHT22;10909;53.590;10.054;2022-08-07T06:30:13;18.50;60.70
21495;DHT22;10909;53.590;10.054;2022-08-07T06:32:39;18.50;60.60
21495;DHT22;10909;53.590;10.054;2022-08-07T06:35:05;18.60;60.40
21495;DHT22;10909;53.590;10.054;2022-08-07T06:37:30;18.70;60.20
21495;DHT22;10909;53.590;10.054;2022-08-07T06:39:56;18.70;60.00
21495;DHT22;10909;53.590;10.054;2022-08-07T06:42:28;18.70;60.00
21495;DHT22;10909;53.590;10.054;2022-08-07T06:44:55;18.80;60.00
21495;DHT22;10909;53.590;10.054;2022-08-07T06:47:22;18.90;59.90
21495;DHT22;10909;53.590;10.054;2022-08-07T06:49:48;18.90;59.80
21495;DHT22;10909;53.590;10.054;2022-08-07T06:52:14;19.00;59.70
21495;DHT22;10909;53.590;10.054;2022-08-07T06:54:42;19.00;59.50
21495;DHT22;10909;53.590;10.054;2022-08-07T06:57:09;19.10;59.80
21495;DHT22;10909;53.590;10.054;2022-08-07T06:59:40;19.10;59.60
21495;DHT22;10909;53.590;10.054;2022-08-07T07:02:09;19.20;59.50
21495;DHT22;10909;53.590;10.054;2022-08-07T07:04:38;19.20;59.50
21495;DHT22;10909;53.590;10.054;2022-08-07T07:07:03;19.30;59.30
21495;DHT22;10909;53.590;10.054;2022-08-07T07:09:31;19.30;58.80
21495;DHT22;10909;53.590;10.054;2022-08-07T07:14:38;19.40;58.30
21495;DHT22;10909;53.590;10.054;2022-08-07T07:17:12;19.50;58.10
21495;DHT22;10909;53.590;10.054;2022-08-07T07:19:40;19.60;57.90
21495;DHT22;10909;53.590;10.054;2022-08-07T07:22:10;19.60;57.40
21495;DHT22;10909;53.590;10.054;2022-08-07T07:24:37;19.70;57.20
21495;DHT22;10909;53.590;10.054;2022-08-07T07:27:04;19.80;57.10
21495;DHT22;10909;53.590;10.054;2022-08-07T07:29:35;19.80;57.00
21495;DHT22;10909;53.590;10.054;2022-08-07T07:32:04;19.80;56.80
21495;DHT22;10909;53.590;10.054;2022-08-07T07:34:31;19.90;56.70
21495;DHT22;10909;53.590;10.054;2022-08-07T07:37:00;20.00;56.60
21495;DHT22;10909;53.590;10.054;2022-08-07T07:39:26;20.00;56.40
21495;DHT22;10909;53.590;10.054;2022-08-07T07:41:54;20.10;56.30
21495;DHT22;10909;53.590;10.054;2022-08-07T07:44:21;20.10;56.30
21495;DHT22;10909;53.590;10.054;2022-08-07T07:46:48;20.20;56.20
21495;DHT22;10909;53.590;10.054;2022-08-07T07:49:16;20.20;56.00
21495;DHT22;10909;53.590;10.054;2022-08-07T07:51:44;20.30;55.90
21495;DHT22;10909;53.590;10.054;2022-08-07T07:54:12;20.30;55.90
21495;DHT22;10909;53.590;10.054;2022-08-07T07:56:40;20.40;55.90
21495;DHT22;10909;53.590;10.054;2022-08-07T07:59:08;20.40;55.90
21495;DHT22;10909;53.590;10.054;2022-08-07T08:01:38;20.50;56.00
21495;DHT22;10909;53.590;10.054;2022-08-07T08:04:06;20.60;55.90
21495;DHT22;10909;53.590;10.054;2022-08-07T08:06:32;20.60;55.90
21495;DHT22;10909;53.590;10.054;2022-08-07T08:09:02;20.70;55.80
21495;DHT22;10909;53.590;10.054;2022-08-07T08:11:28;20.70;55.60
21495;DHT22;10909;53.590;10.054;2022-08-07T08:13:55;20.80;55.60
21495;DHT22;10909;53.590;10.054;2022-08-07T08:16:25;20.80;55.30
21495;DHT22;10909;53.590;10.054;2022-08-07T08:18:53;20.90;55.20
21495;DHT22;10909;53.590;10.054;2022-08-07T08:21:21;21.00;54.80
21495;DHT22;10909;53.590;10.054;2022-08-07T08:24:06;21.00;54.40
21495;DHT22;10909;53.590;10.054;2022-08-07T08:26:54;21.10;54.00
21495;DHT22;10909;53.590;10.054;2022-08-07T08:29:41;21.10;53.10
21495;DHT22;10909;53.590;10.054;2022-08-07T08:32:11;21.20;53.00
21495;DHT22;10909;53.590;10.054;2022-08-07T08:34:40;21.20;52.50
21495;DHT22;10909;53.590;10.054;2022-08-07T08:37:08;21.20;52.50
21495;DHT22;10909;53.590;10.054;2022-08-07T08:39:34;21.30;52.10
21495;DHT22;10909;53.590;10.054;2022-08-07T08:42:08;21.30;51.30
21495;DHT22;10909;53.590;10.054;2022-08-07T08:44:40;21.40;51.40
21495;DHT22;10909;53.590;10.054;2022-08-07T08:50:18;21.50;51.40
21495;DHT22;10909;53.590;10.054;2022-08-07T08:52:50;21.50;50.00
21495;DHT22;10909;53.590;10.054;2022-08-07T08:55:43;21.60;50.60
21495;DHT22;10909;53.590;10.054;2022-08-07T09:01:33;21.60;50.10
21495;DHT22;10909;53.590;10.054;2022-08-07T09:04:08;21.70;50.20
21495;DHT22;10909;53.590;10.054;2022-08-07T09:07:12;21.80;49.80
21495;DHT22;10909;53.590;10.054;2022-08-07T09:29:02;22.20;48.60
21495;DHT22;10909;53.590;10.054;2022-08-07T09:31:40;22.30;48.80
21495;DHT22;10909;53.590;10.054;2022-08-07T09:34:17;22.30;48.40
21495;DHT22;10909;53.590;10.054;2022-08-07T09:39:18;22.40;48.10
21495;DHT22;10909;53.590;10.054;2022-08-07T09:42:08;22.40;48.10
21495;DHT22;10909;53.590;10.054;2022-08-07T09:47:36;22.40;48.10
21495;DHT22;10909;53.590;10.054;2022-08-07T09:52:41;22.50;48.20
21495;DHT22;10909;53.590;10.054;2022-08-07T10:00:49;22.60;47.10
21495;DHT22;10909;53.590;10.054;2022-08-07T10:03:45;22.60;47.90
21495;DHT22;10909;53.590;10.054;2022-08-07T10:06:43;22.70;47.80
21495;DHT22;10909;53.590;10.054;2022-08-07T10:15:03;22.90;47.60
21495;DHT22;10909;53.590;10.054;2022-08-07T10:20:18;22.90;47.00
21495;DHT22;10909;53.590;10.054;2022-08-07T10:25:56;23.00;46.60
21495;DHT22;10909;53.590;10.054;2022-08-07T10:28:30;23.00;46.20
21495;DHT22;10909;53.590;10.054;2022-08-07T10:39:32;23.40;46.20
21495;DHT22;10909;53.590;10.054;2022-08-07T10:50:56;23.70;45.50
21495;DHT22;10909;53.590;10.054;2022-08-07T10:53:46;23.80;45.30
21495;DHT22;10909;53.590;10.054;2022-08-07T10:57:05;23.80;45.40
21495;DHT22;10909;53.590;10.054;2022-08-07T10:59:58;23.80;45.20
21495;DHT22;10909;53.590;10.054;2022-08-07T11:02:39;23.80;45.00
21495;DHT22;10909;53.590;10.054;2022-08-07T11:08:01;23.90;44.50
21495;DHT22;10909;53.590;10.054;2022-08-07T11:15:38;24.20;44.90
21495;DHT22;10909;53.590;10.054;2022-08-07T11:18:24;24.30;44.80
21495;DHT22;10909;53.590;10.054;2022-08-07T11:20:58;24.40;44.00
21495;DHT22;10909;53.590;10.054;2022-08-07T11:23:35;24.50;44.50
21495;DHT22;10909;53.590;10.054;2022-08-07T11:31:54;24.90;43.80
21495;DHT22;10909;53.590;10.054;2022-08-07T11:37:33;25.20;43.30
21495;DHT22;10909;53.590;10.054;2022-08-07T11:42:53;25.30;43.20
21495;DHT22;10909;53.590;10.054;2022-08-07T11:56:04;25.50;41.40
21495;DHT22;10909;53.590;10.054;2022-08-07T12:01:55;25.30;41.40
21495;DHT22;10909;53.590;10.054;2022-08-07T12:04:33;25.20;40.70
21495;DHT22;10909;53.590;10.054;2022-08-07T12:07:18;25.20;41.60
21495;DHT22;10909;53.590;10.054;2022-08-07T12:09:57;25.10;40.90
21495;DHT22;10909;53.590;10.054;2022-08-07T12:15:29;25.10;41.20
21495;DHT22;10909;53.590;10.054;2022-08-07T12:18:04;25.10;41.50
21495;DHT22;10909;53.590;10.054;2022-08-07T12:26:11;25.30;41.00
21495;DHT22;10909;53.590;10.054;2022-08-07T12:34:06;25.60;40.00
21495;DHT22;10909;53.590;10.054;2022-08-07T12:36:33;25.70;41.00
21495;DHT22;10909;53.590;10.054;2022-08-07T12:39:02;25.80;40.90
21495;DHT22;10909;53.590;10.054;2022-08-07T12:41:29;25.80;40.50
21495;DHT22;10909;53.590;10.054;2022-08-07T12:43:58;25.90;40.10
21495;DHT22;10909;53.590;10.054;2022-08-07T12:52:13;26.60;39.70
21495;DHT22;10909;53.590;10.054;2022-08-07T12:57:14;27.30;39.60
21495;DHT22;10909;53.590;10.054;2022-08-07T12:59:42;27.50;39.50
21495;DHT22;10909;53.590;10.054;2022-08-07T13:05:05;27.80;39.00
21495;DHT22;10909;53.590;10.054;2022-08-07T13:07:49;28.20;38.80
21495;DHT22;10909;53.590;10.054;2022-08-07T13:16:01;28.60;37.40
21495;DHT22;10909;53.590;10.054;2022-08-07T13:21:42;28.80;37.20
21495;DHT22;10909;53.590;10.054;2022-08-07T13:24:22;28.80;37.10
21495;DHT22;10909;53.590;10.054;2022-08-07T13:27:25;28.80;36.80
21495;DHT22;10909;53.590;10.054;2022-08-07T13:30:06;28.70;36.50
21495;DHT22;10909;53.590;10.054;2022-08-07T13:32:52;28.60;36.30
21495;DHT22;10909;53.590;10.054;2022-08-07T13:35:41;28.50;35.90
21495;DHT22;10909;53.590;10.054;2022-08-07T13:38:28;28.50;35.40
21495;DHT22;10909;53.590;10.054;2022-08-07T13:43:43;29.10;37.70
21495;DHT22;10909;53.590;10.054;2022-08-07T13:46:12;29.50;37.80
21495;DHT22;10909;53.590;10.054;2022-08-07T13:48:39;30.00;37.30
21495;DHT22;10909;53.590;10.054;2022-08-07T13:51:08;30.40;36.60
21495;DHT22;10909;53.590;10.054;2022-08-07T13:53:38;30.70;36.20
21495;DHT22;10909;53.590;10.054;2022-08-07T13:56:08;31.10;35.20
21495;DHT22;10909;53.590;10.054;2022-08-07T13:58:39;31.50;34.10
21495;DHT22;10909;53.590;10.054;2022-08-07T14:01:36;31.80;33.30
21495;DHT22;10909;53.590;10.054;2022-08-07T14:04:11;32.20;33.70
21495;DHT22;10909;53.590;10.054;2022-08-07T14:06:40;32.40;32.10
21495;DHT22;10909;53.590;10.054;2022-08-07T14:09:14;32.50;31.90
21495;DHT22;10909;53.590;10.054;2022-08-07T14:11:55;32.60;32.20
21495;DHT22;10909;53.590;10.054;2022-08-07T14:14:28;32.90;30.80
21495;DHT22;10909;53.590;10.054;2022-08-07T14:16:58;33.10;31.30
21495;DHT22;10909;53.590;10.054;2022-08-07T14:19:54;33.40;31.90
21495;DHT22;10909;53.590;10.054;2022-08-07T14:22:24;33.70;31.30
21495;DHT22;10909;53.590;10.054;2022-08-07T14:24:58;34.00;30.40
21495;DHT22;10909;53.590;10.054;2022-08-07T14:27:40;34.30;30.50
21495;DHT22;10909;53.590;10.054;2022-08-07T14:30:09;34.50;28.70
21495;DHT22;10909;53.590;10.054;2022-08-07T14:32:57;34.60;29.60
21495;DHT22;10909;53.590;10.054;2022-08-07T14:35:25;34.70;28.20
21495;DHT22;10909;53.590;10.054;2022-08-07T14:37:52;34.80;28.90
21495;DHT22;10909;53.590;10.054;2022-08-07T14:40:21;34.90;29.10
21495;DHT22;10909;53.590;10.054;2022-08-07T14:43:02;35.00;28.70
21495;DHT22;10909;53.590;10.054;2022-08-07T14:45:33;35.00;27.70
21495;DHT22;10909;53.590;10.054;2022-08-07T14:48:01;34.80;28.20
21495;DHT22;10909;53.590;10.054;2022-08-07T14:50:29;34.50;27.70
21495;DHT22;10909;53.590;10.054;2022-08-07T14:52:55;34.10;27.80
21495;DHT22;10909;53.590;10.054;2022-08-07T14:55:27;33.80;27.80
21495;DHT22;10909;53.590;10.054;2022-08-07T14:57:55;33.40;27.90
21495;DHT22;10909;53.590;10.054;2022-08-07T15:00:27;32.90;28.10
21495;DHT22;10909;53.590;10.054;2022-08-07T15:02:53;32.60;28.40
21495;DHT22;10909;53.590;10.054;2022-08-07T15:05:22;32.40;29.00
21495;DHT22;10909;53.590;10.054;2022-08-07T15:07:48;32.40;29.20
21495;DHT22;10909;53.590;10.054;2022-08-07T15:10:23;32.40;29.20
21495;DHT22;10909;53.590;10.054;2022-08-07T15:12:53;32.50;29.20
21495;DHT22;10909;53.590;10.054;2022-08-07T15:15:29;32.70;29.50
21495;DHT22;10909;53.590;10.054;2022-08-07T15:18:00;33.00;29.40
21495;DHT22;10909;53.590;10.054;2022-08-07T15:20:31;33.30;29.20
21495;DHT22;10909;53.590;10.054;2022-08-07T15:22:59;33.60;29.10
21495;DHT22;10909;53.590;10.054;2022-08-07T15:25:32;33.70;28.40
21495;DHT22;10909;53.590;10.054;2022-08-07T15:28:00;33.50;27.90
21495;DHT22;10909;53.590;10.054;2022-08-07T15:30:27;33.40;27.80
21495;DHT22;10909;53.590;10.054;2022-08-07T15:32:54;33.20;28.10
21495;DHT22;10909;53.590;10.054;2022-08-07T15:35:25;33.00;28.30
21495;DHT22;10909;53.590;10.054;2022-08-07T15:37:53;32.90;28.50
21495;DHT22;10909;53.590;10.054;2022-08-07T15:40:22;32.90;28.60
21495;DHT22;10909;53.590;10.054;2022-08-07T15:45:37;33.10;29.20
21495;DHT22;10909;53.590;10.054;2022-08-07T15:50:40;33.80;29.60
21495;DHT22;10909;53.590;10.054;2022-08-07T15:53:13;34.30;29.20
21495;DHT22;10909;53.590;10.054;2022-08-07T15:55:43;34.60;28.60
21495;DHT22;10909;53.590;10.054;2022-08-07T15:58:15;34.90;28.20
21495;DHT22;10909;53.590;10.054;2022-08-07T16:00:42;35.10;27.70
21495;DHT22;10909;53.590;10.054;2022-08-07T16:03:13;35.20;27.90
21495;DHT22;10909;53.590;10.054;2022-08-07T16:05:44;35.20;27.20
21495;DHT22;10909;53.590;10.054;2022-08-07T16:08:14;35.20;27.40
21495;DHT22;10909;53.590;10.054;2022-08-07T16:10:44;35.30;27.70
21495;DHT22;10909;53.590;10.054;2022-08-07T16:29:49;36.30;26.40
21495;DHT22;10909;53.590;10.054;2022-08-07T16:32:24;36.10;26.20
21495;DHT22;10909;53.590;10.054;2022-08-07T16:34:55;35.70;26.00
21495;DHT22;10909;53.590;10.054;2022-08-07T16:43:27;34.20;26.20
21495;DHT22;10909;53.590;10.054;2022-08-07T16:46:41;33.70;26.60
21495;DHT22;10909;53.590;10.054;2022-08-07T16:52:08;32.70;27.30
21495;DHT22;10909;53.590;10.054;2022-08-07T16:57:30;32.10;27.70
21495;DHT22;10909;53.590;10.054;2022-08-07T17:00:12;31.90;27.80
21495;DHT22;10909;53.590;10.054;2022-08-07T17:08:09;30.90;28.30
21495;DHT22;10909;53.590;10.054;2022-08-07T17:10:51;30.60;28.60
21495;DHT22;10909;53.590;10.054;2022-08-07T17:21:41;29.50;30.00
21495;DHT22;10909;53.590;10.054;2022-08-07T17:24:34;29.30;30.00
21495;DHT22;10909;53.590;10.054;2022-08-07T17:30:10;29.20;30.40
21495;DHT22;10909;53.590;10.054;2022-08-07T17:35:51;29.10;30.50
21495;DHT22;10909;53.590;10.054;2022-08-07T17:41:54;29.00;30.50
21495;DHT22;10909;53.590;10.054;2022-08-07T17:44:24;29.00;30.70
21495;DHT22;10909;53.590;10.054;2022-08-07T17:47:02;28.90;30.60
21495;DHT22;10909;53.590;10.054;2022-08-07T17:49:39;28.90;30.80
21495;DHT22;10909;53.590;10.054;2022-08-07T18:00:10;28.60;31.30
21495;DHT22;10909;53.590;10.054;2022-08-07T18:02:42;28.50;31.30
21495;DHT22;10909;53.590;10.054;2022-08-07T18:08:12;28.40;31.80
21495;DHT22;10909;53.590;10.054;2022-08-07T18:10:44;28.30;31.90
21495;DHT22;10909;53.590;10.054;2022-08-07T18:18:58;28.20;32.40
21495;DHT22;10909;53.590;10.054;2022-08-07T18:21:41;28.10;32.30
21495;DHT22;10909;53.590;10.054;2022-08-07T18:24:19;28.00;32.40
21495;DHT22;10909;53.590;10.054;2022-08-07T18:29:56;27.90;32.80
21495;DHT22;10909;53.590;10.054;2022-08-07T18:32:40;27.90;32.90
21495;DHT22;10909;53.590;10.054;2022-08-07T18:35:20;27.80;33.00
21495;DHT22;10909;53.590;10.054;2022-08-07T18:45:56;27.50;33.40
21495;DHT22;10909;53.590;10.054;2022-08-07T18:48:42;27.40;33.50
21495;DHT22;10909;53.590;10.054;2022-08-07T18:51:39;27.30;33.80
21495;DHT22;10909;53.590;10.054;2022-08-07T18:56:54;27.20;34.30
21495;DHT22;10909;53.590;10.054;2022-08-07T19:02:28;27.00;34.60
21495;DHT22;10909;53.590;10.054;2022-08-07T19:05:32;26.90;34.50
21495;DHT22;10909;53.590;10.054;2022-08-07T19:08:10;26.80;35.00
21495;DHT22;10909;53.590;10.054;2022-08-07T19:10:49;26.70;35.00
21495;DHT22;10909;53.590;10.054;2022-08-07T19:16:17;26.60;35.40
21495;DHT22;10909;53.590;10.054;2022-08-07T19:19:11;26.50;35.40
21495;DHT22;10909;53.590;10.054;2022-08-07T19:22:02;26.40;35.90
21495;DHT22;10909;53.590;10.054;2022-08-07T19:24:39;26.30;36.10
21495;DHT22;10909;53.590;10.054;2022-08-07T19:27:10;26.30;36.10
21495;DHT22;10909;53.590;10.054;2022-08-07T19:29:40;26.20;36.10
21495;DHT22;10909;53.590;10.054;2022-08-07T19:32:08;26.10;36.30
21495;DHT22;10909;53.590;10.054;2022-08-07T19:34:36;26.00;36.40
21495;DHT22;10909;53.590;10.054;2022-08-07T19:37:09;25.90;36.60
21495;DHT22;10909;53.590;10.054;2022-08-07T19:39:36;25.80;36.90
21495;DHT22;10909;53.590;10.054;2022-08-07T19:42:07;25.80;36.90
21495;DHT22;10909;53.590;10.054;2022-08-07T19:44:36;25.70;37.20
21495;DHT22;10909;53.590;10.054;2022-08-07T19:47:07;25.70;37.30